CheckWX is a tool to help pilots better visualize weather data.  It is not intended as a substitute for an official pre-flight weather briefing.

11:07:28 UTC

KMKC TAF
Charles B Wheeler Downtown Airport
Kansas City, Missouri, USA
KMKC 301120Z 3012/3112 11005KT P6SM SCT100 FM302000 07005KT P6SM VCSH SCT030 BKN100 FM302300 08006KT P6SM BKN070

May-30@
12:00 UTC

May-30 @ 12:00 UTC

May-30@
20:00 UTC

May-30 @ 20:00 UTC

TAF KMKC 301120Z 3012/3112 11005KT P6SM SCT100

Expired

Wind
  • 110° at 5 KTS
Cloud Levels
  • Scattered at 10,000' AGL

May-30@
20:00 UTC

May-30 @ 20:00 UTC

May-30@
23:00 UTC

May-30 @ 23:00 UTC

FM302000 07005KT P6SM VCSH SCT030 BKN100

Expired

Wind
  • 070° at 5 KTS
Conditions
Area Showers
Cloud Levels
  • Scattered at 3,000' AGL
  • Broken at 10,000' AGL

May-30@
23:00 UTC

May-30 @ 23:00 UTC

May-31@
12:00 UTC

May-31 @ 12:00 UTC

FM302300 08006KT P6SM BKN070

From

From Standard forecast or significant change

Wind
  • 080° at 6 KTS
Cloud Levels
  • Broken at 7,000' AGL